createdAt,value
2023-03-02T00:01:46.120Z,2.95
2023-03-02T00:11:46.455Z,2.90
2023-03-02T00:21:46.526Z,2.75
2023-03-02T00:31:46.897Z,2.53
2023-03-02T00:41:47.000Z,2.21
2023-03-02T00:51:47.302Z,2.03
2023-03-02T01:01:47.356Z,1.72
2023-03-02T01:11:47.589Z,1.70
2023-03-02T01:21:47.832Z,1.55
2023-03-02T01:31:48.169Z,1.24
2023-03-02T01:41:48.243Z,1.23
2023-03-02T01:51:48.524Z,1.14
2023-03-02T02:01:48.562Z,1.16
2023-03-02T02:11:48.892Z,1.11
2023-03-02T02:21:48.928Z,1.32
2023-03-02T02:31:49.280Z,1.24
2023-03-02T02:41:49.309Z,1.11
2023-03-02T02:51:49.616Z,0.90
2023-03-02T03:01:49.668Z,0.94
2023-03-02T03:11:49.999Z,0.80
2023-03-02T03:21:50.016Z,0.87
2023-03-02T03:31:50.392Z,0.84
2023-03-02T03:41:50.495Z,0.75
2023-03-02T03:51:50.622Z,0.80
2023-03-02T04:01:50.729Z,0.70
2023-03-02T04:11:51.816Z,0.62
2023-03-02T04:21:51.053Z,0.70
2023-03-02T04:31:51.411Z,0.68
2023-03-02T04:41:51.374Z,0.44
2023-03-02T04:51:51.645Z,0.36
2023-03-02T05:01:51.810Z,0.39
2023-03-02T05:11:52.003Z,0.42
2023-03-02T05:21:52.053Z,0.39
2023-03-02T05:31:52.511Z,0.32
2023-03-02T05:41:52.393Z,0.29
2023-03-02T05:51:52.776Z,0.14
2023-03-02T06:01:52.892Z,0.03
2023-03-02T06:11:53.020Z,-0.05
2023-03-02T06:21:53.070Z,0.03
2023-03-02T06:31:53.605Z,0.07
2023-03-02T06:41:53.491Z,0.18
2023-03-02T06:51:53.762Z,0.28
2023-03-02T07:01:53.978Z,0.31
2023-03-02T07:11:54.246Z,0.44
2023-03-02T07:21:54.296Z,0.51
2023-03-02T07:31:54.621Z,0.70
2023-03-02T07:41:54.677Z,0.87
2023-03-02T07:51:54.974Z,1.05
2023-03-02T08:01:55.015Z,1.26
2023-03-02T08:11:55.389Z,1.32
2023-03-02T08:21:55.418Z,1.58
2023-03-02T08:31:58.989Z,2.16
2023-03-02T08:41:55.768Z,2.95
2023-03-02T08:51:56.093Z,3.52
2023-03-02T09:01:56.151Z,4.27
2023-03-02T09:11:56.454Z,5.00
2023-03-02T09:21:56.493Z,4.89
2023-03-02T09:31:56.918Z,4.85
2023-03-02T09:41:56.821Z,5.25
2023-03-02T09:51:57.098Z,5.65
2023-03-02T10:01:57.125Z,5.96
2023-03-02T10:11:57.361Z,5.72
2023-03-02T10:21:57.634Z,5.99
2023-03-02T10:31:57.748Z,7.05
2023-03-02T10:41:57.797Z,7.43
2023-03-02T10:51:58.104Z,8.50
2023-03-02T11:01:58.197Z,8.30
2023-03-02T11:11:58.404Z,9.13
2023-03-02T11:21:58.473Z,9.17
2023-03-02T11:31:58.878Z,7.85
2023-03-02T11:41:59.194Z,8.95
2023-03-02T11:51:59.172Z,9.65
2023-03-02T12:01:59.262Z,8.91
2023-03-02T12:11:59.588Z,8.89
2023-03-02T12:21:59.620Z,8.15
2023-03-02T12:32:00.030Z,8.02
2023-03-02T12:42:00.161Z,8.59
2023-03-02T12:52:00.439Z,8.10
2023-03-02T13:02:00.424Z,7.72
2023-03-02T13:12:00.702Z,7.42
2023-03-02T13:22:00.795Z,7.27
2023-03-02T13:32:00.883Z,6.91
2023-03-02T13:42:00.992Z,6.76
2023-03-02T13:52:01.224Z,6.88
2023-03-02T14:02:01.476Z,6.55
2023-03-02T14:12:01.806Z,6.55
2023-03-02T14:22:01.867Z,6.46
2023-03-02T14:32:02.249Z,6.15
2023-03-02T14:42:02.297Z,5.99
2023-03-02T14:52:02.547Z,5.91
2023-03-02T15:02:15.786Z,5.86
2023-03-02T15:12:04.081Z,5.74
2023-03-02T15:22:03.409Z,5.60
2023-03-02T15:32:03.444Z,5.58
2023-03-02T15:42:03.570Z,5.42
2023-03-02T15:52:03.632Z,5.30
2023-03-02T16:02:06.000Z,5.03
2023-03-02T16:12:04.027Z,5.15
2023-03-02T16:22:04.467Z,5.00
2023-03-02T16:32:04.645Z,5.15
2023-03-02T16:42:05.833Z,5.07
2023-03-02T16:52:04.994Z,5.03
2023-03-02T17:02:05.186Z,4.94
2023-03-02T17:12:05.462Z,4.94
2023-03-02T17:22:05.581Z,4.82
2023-03-02T17:32:05.740Z,4.65
2023-03-02T17:42:05.714Z,4.69
2023-03-02T17:52:05.945Z,4.66
2023-03-02T18:02:06.093Z,4.67
2023-03-02T18:12:05.977Z,4.67
2023-03-02T18:22:06.469Z,4.60
2023-03-02T18:32:06.635Z,4.60
2023-03-02T18:42:06.817Z,4.58
2023-03-02T18:52:07.016Z,4.62
2023-03-02T19:02:07.047Z,4.65
2023-03-02T19:12:07.310Z,4.59
2023-03-02T19:22:07.370Z,4.51
2023-03-02T19:32:07.791Z,4.48
2023-03-02T19:42:09.840Z,4.48
2023-03-02T19:52:08.042Z,4.41
2023-03-02T20:02:08.265Z,4.48
2023-03-02T20:12:08.452Z,4.33
2023-03-02T20:22:12.027Z,4.29
2023-03-02T20:32:13.152Z,4.33
2023-03-02T20:42:09.004Z,4.33
2023-03-02T20:52:09.188Z,4.20
2023-03-02T21:02:09.310Z,4.22
2023-03-02T21:12:12.721Z,4.00
2023-03-02T21:22:09.490Z,4.16
2023-03-02T21:32:09.805Z,4.09
2023-03-02T21:42:10.081Z,4.09
2023-03-02T21:52:10.007Z,4.11
2023-03-02T22:02:10.041Z,4.08
2023-03-02T22:12:10.287Z,4.05
2023-03-02T22:22:10.519Z,4.05
2023-03-02T22:32:10.904Z,4.04
2023-03-02T22:42:10.960Z,4.02
2023-03-02T22:52:11.228Z,4.11
2023-03-02T23:02:11.275Z,4.14
2023-03-02T23:12:11.615Z,4.09
2023-03-02T23:22:11.654Z,4.06
2023-03-02T23:32:12.104Z,3.94
2023-03-02T23:42:12.007Z,3.98
2023-03-02T23:52:12.361Z,3.88
